Terminal Aerodrome Forecast
Issued by NWS Mt. Holly, NJ

Home | Current Version | Previous Version | Text Only | Print | Product List | Glossary On
Versions: 1 2 3 4 5 6 7 8 9 10 11 12 13 14 15
828
FTUS41 KPHI 290535
TAFILG
TAF
KILG 290535Z 2906/3006 20006KT P6SM SCT200
     FM291600 20010KT P6SM SKC
     FM291800 19014G22KT P6SM SCT050
     FM292200 19015KT P6SM FEW250
     FM300400 19010KT P6SM SCT070=

USA.gov is the U.S. government's official web portal to all federal, state and local government web resources and services.